sensor_id;sensor_type;location;lat;lon;timestamp;P1;durP1;ratioP1;P2;durP2;ratioP2
22318;SDS011;11327;52.334;9.506;2023-04-15T00:01:59;8.28;;;5.90;;
22318;SDS011;11327;52.334;9.506;2023-04-15T00:05:20;7.62;;;6.30;;
22318;SDS011;11327;52.334;9.506;2023-04-15T00:08:41;7.80;;;6.05;;
22318;SDS011;11327;52.334;9.506;2023-04-15T00:12:03;7.90;;;6.15;;
22318;SDS011;11327;52.334;9.506;2023-04-15T00:15:24;8.63;;;5.67;;
22318;SDS011;11327;52.334;9.506;2023-04-15T00:18:45;7.95;;;6.30;;
22318;SDS011;11327;52.334;9.506;2023-04-15T00:22:05;7.70;;;6.25;;
22318;SDS011;11327;52.334;9.506;2023-04-15T00:25:27;7.95;;;5.67;;
22318;SDS011;11327;52.334;9.506;2023-04-15T00:28:48;7.10;;;5.70;;
22318;SDS011;11327;52.334;9.506;2023-04-15T00:32:09;7.60;;;5.83;;
22318;SDS011;11327;52.334;9.506;2023-04-15T00:35:30;8.98;;;6.30;;
22318;SDS011;11327;52.334;9.506;2023-04-15T00:38:55;8.13;;;6.17;;
22318;SDS011;11327;52.334;9.506;2023-04-15T00:42:17;8.90;;;6.62;;
22318;SDS011;11327;52.334;9.506;2023-04-15T00:45:39;7.90;;;5.97;;
22318;SDS011;11327;52.334;9.506;2023-04-15T00:49:01;8.20;;;6.70;;
22318;SDS011;11327;52.334;9.506;2023-04-15T00:52:23;9.63;;;6.95;;
22318;SDS011;11327;52.334;9.506;2023-04-15T00:55:44;8.00;;;6.67;;
22318;SDS011;11327;52.334;9.506;2023-04-15T00:59:05;9.28;;;6.65;;
22318;SDS011;11327;52.334;9.506;2023-04-15T01:02:27;7.83;;;6.05;;
22318;SDS011;11327;52.334;9.506;2023-04-15T01:05:48;8.20;;;6.28;;
22318;SDS011;11327;52.334;9.506;2023-04-15T01:09:09;8.10;;;6.28;;
22318;SDS011;11327;52.334;9.506;2023-04-15T01:12:31;9.33;;;6.83;;
22318;SDS011;11327;52.334;9.506;2023-04-15T01:15:53;8.45;;;6.55;;
22318;SDS011;11327;52.334;9.506;2023-04-15T01:19:16;7.72;;;6.37;;
22318;SDS011;11327;52.334;9.506;2023-04-15T01:22:37;7.72;;;6.15;;
22318;SDS011;11327;52.334;9.506;2023-04-15T01:25:58;9.30;;;6.58;;
22318;SDS011;11327;52.334;9.506;2023-04-15T01:29:19;9.30;;;6.75;;
22318;SDS011;11327;52.334;9.506;2023-04-15T01:32:40;9.75;;;6.83;;
22318;SDS011;11327;52.334;9.506;2023-04-15T01:36:01;9.55;;;7.00;;
22318;SDS011;11327;52.334;9.506;2023-04-15T01:39:22;10.35;;;7.33;;
22318;SDS011;11327;52.334;9.506;2023-04-15T01:42:42;9.38;;;7.08;;
22318;SDS011;11327;52.334;9.506;2023-04-15T01:46:03;11.25;;;7.00;;
22318;SDS011;11327;52.334;9.506;2023-04-15T01:49:24;9.30;;;7.37;;
22318;SDS011;11327;52.334;9.506;2023-04-15T01:52:45;9.48;;;7.05;;
22318;SDS011;11327;52.334;9.506;2023-04-15T01:56:06;10.23;;;7.40;;
22318;SDS011;11327;52.334;9.506;2023-04-15T01:59:27;10.53;;;7.55;;
22318;SDS011;11327;52.334;9.506;2023-04-15T02:02:48;10.18;;;8.05;;
22318;SDS011;11327;52.334;9.506;2023-04-15T02:06:09;10.98;;;8.43;;
22318;SDS011;11327;52.334;9.506;2023-04-15T02:09:29;11.53;;;8.70;;
22318;SDS011;11327;52.334;9.506;2023-04-15T02:12:50;12.33;;;9.40;;
22318;SDS011;11327;52.334;9.506;2023-04-15T02:16:15;11.28;;;8.38;;
22318;SDS011;11327;52.334;9.506;2023-04-15T02:19:36;13.43;;;9.40;;
22318;SDS011;11327;52.334;9.506;2023-04-15T02:22:58;12.40;;;9.00;;
22318;SDS011;11327;52.334;9.506;2023-04-15T02:26:19;12.65;;;9.83;;
22318;SDS011;11327;52.334;9.506;2023-04-15T02:29:40;13.40;;;9.33;;
22318;SDS011;11327;52.334;9.506;2023-04-15T02:33:00;15.88;;;10.15;;
22318;SDS011;11327;52.334;9.506;2023-04-15T02:36:22;15.95;;;10.10;;
22318;SDS011;11327;52.334;9.506;2023-04-15T02:39:43;16.62;;;11.43;;
22318;SDS011;11327;52.334;9.506;2023-04-15T02:43:03;15.10;;;10.53;;
22318;SDS011;11327;52.334;9.506;2023-04-15T02:46:26;16.07;;;10.58;;
22318;SDS011;11327;52.334;9.506;2023-04-15T02:49:46;17.35;;;11.20;;
22318;SDS011;11327;52.334;9.506;2023-04-15T02:53:07;17.48;;;11.18;;
22318;SDS011;11327;52.334;9.506;2023-04-15T02:56:28;14.40;;;10.63;;
22318;SDS011;11327;52.334;9.506;2023-04-15T02:59:50;16.23;;;10.65;;
22318;SDS011;11327;52.334;9.506;2023-04-15T03:03:10;17.60;;;11.78;;
22318;SDS011;11327;52.334;9.506;2023-04-15T03:06:31;17.65;;;11.48;;
22318;SDS011;11327;52.334;9.506;2023-04-15T03:09:52;17.70;;;11.38;;
22318;SDS011;11327;52.334;9.506;2023-04-15T03:13:13;15.13;;;10.90;;
22318;SDS011;11327;52.334;9.506;2023-04-15T03:16:33;16.77;;;10.98;;
22318;SDS011;11327;52.334;9.506;2023-04-15T03:19:54;19.55;;;12.05;;
22318;SDS011;11327;52.334;9.506;2023-04-15T03:23:15;18.32;;;11.93;;
22318;SDS011;11327;52.334;9.506;2023-04-15T03:26:36;18.25;;;11.75;;
22318;SDS011;11327;52.334;9.506;2023-04-15T03:29:56;18.95;;;11.70;;
22318;SDS011;11327;52.334;9.506;2023-04-15T03:33:19;19.05;;;12.18;;
22318;SDS011;11327;52.334;9.506;2023-04-15T03:36:40;18.73;;;12.58;;
22318;SDS011;11327;52.334;9.506;2023-04-15T03:40:01;19.42;;;12.30;;
22318;SDS011;11327;52.334;9.506;2023-04-15T03:43:21;19.20;;;12.40;;
22318;SDS011;11327;52.334;9.506;2023-04-15T03:46:42;16.70;;;11.83;;
22318;SDS011;11327;52.334;9.506;2023-04-15T03:50:03;21.05;;;12.93;;
22318;SDS011;11327;52.334;9.506;2023-04-15T03:53:24;21.77;;;13.75;;
22318;SDS011;11327;52.334;9.506;2023-04-15T03:56:45;22.17;;;13.98;;
22318;SDS011;11327;52.334;9.506;2023-04-15T04:00:06;22.20;;;14.75;;
22318;SDS011;11327;52.334;9.506;2023-04-15T04:03:29;21.55;;;13.58;;
22318;SDS011;11327;52.334;9.506;2023-04-15T04:06:51;22.93;;;14.10;;
22318;SDS011;11327;52.334;9.506;2023-04-15T04:10:11;25.25;;;15.25;;
22318;SDS011;11327;52.334;9.506;2023-04-15T04:13:32;21.12;;;13.98;;
22318;SDS011;11327;52.334;9.506;2023-04-15T04:16:53;23.40;;;14.23;;
22318;SDS011;11327;52.334;9.506;2023-04-15T04:20:14;22.95;;;14.98;;
22318;SDS011;11327;52.334;9.506;2023-04-15T04:23:34;24.12;;;14.73;;
22318;SDS011;11327;52.334;9.506;2023-04-15T04:26:55;24.92;;;15.98;;
22318;SDS011;11327;52.334;9.506;2023-04-15T04:30:16;24.15;;;15.20;;
22318;SDS011;11327;52.334;9.506;2023-04-15T04:33:37;25.25;;;16.23;;
22318;SDS011;11327;52.334;9.506;2023-04-15T04:36:58;22.82;;;15.32;;
22318;SDS011;11327;52.334;9.506;2023-04-15T04:40:19;24.67;;;15.68;;
22318;SDS011;11327;52.334;9.506;2023-04-15T04:43:40;23.98;;;15.48;;
22318;SDS011;11327;52.334;9.506;2023-04-15T04:47:01;25.27;;;15.45;;
22318;SDS011;11327;52.334;9.506;2023-04-15T04:50:22;25.55;;;15.40;;
22318;SDS011;11327;52.334;9.506;2023-04-15T04:53:42;26.20;;;16.07;;
22318;SDS011;11327;52.334;9.506;2023-04-15T04:57:03;24.32;;;15.28;;
22318;SDS011;11327;52.334;9.506;2023-04-15T05:00:24;24.98;;;15.68;;
22318;SDS011;11327;52.334;9.506;2023-04-15T05:03:45;27.55;;;16.77;;
22318;SDS011;11327;52.334;9.506;2023-04-15T05:07:05;26.30;;;16.10;;
22318;SDS011;11327;52.334;9.506;2023-04-15T05:10:26;26.35;;;16.45;;
22318;SDS011;11327;52.334;9.506;2023-04-15T05:13:47;25.35;;;15.55;;
22318;SDS011;11327;52.334;9.506;2023-04-15T05:17:07;25.25;;;15.65;;
22318;SDS011;11327;52.334;9.506;2023-04-15T05:20:28;25.95;;;15.93;;
22318;SDS011;11327;52.334;9.506;2023-04-15T05:23:49;24.85;;;16.07;;
22318;SDS011;11327;52.334;9.506;2023-04-15T05:27:10;25.97;;;15.75;;
22318;SDS011;11327;52.334;9.506;2023-04-15T05:30:31;25.68;;;15.75;;
22318;SDS011;11327;52.334;9.506;2023-04-15T05:33:51;26.07;;;16.37;;
22318;SDS011;11327;52.334;9.506;2023-04-15T05:37:12;25.80;;;16.32;;
22318;SDS011;11327;52.334;9.506;2023-04-15T05:40:33;26.57;;;16.07;;
22318;SDS011;11327;52.334;9.506;2023-04-15T05:43:53;24.40;;;15.15;;
22318;SDS011;11327;52.334;9.506;2023-04-15T05:47:14;23.12;;;14.93;;
22318;SDS011;11327;52.334;9.506;2023-04-15T05:50:35;25.88;;;15.43;;
22318;SDS011;11327;52.334;9.506;2023-04-15T05:53:56;25.23;;;15.25;;
22318;SDS011;11327;52.334;9.506;2023-04-15T05:57:16;26.40;;;15.75;;
22318;SDS011;11327;52.334;9.506;2023-04-15T06:00:37;24.12;;;15.00;;
22318;SDS011;11327;52.334;9.506;2023-04-15T06:03:58;24.27;;;15.00;;
22318;SDS011;11327;52.334;9.506;2023-04-15T06:07:18;24.77;;;14.80;;
22318;SDS011;11327;52.334;9.506;2023-04-15T06:10:39;22.37;;;13.40;;
22318;SDS011;11327;52.334;9.506;2023-04-15T06:14:00;23.02;;;14.63;;
22318;SDS011;11327;52.334;9.506;2023-04-15T06:17:21;21.87;;;13.40;;
22318;SDS011;11327;52.334;9.506;2023-04-15T06:20:41;21.40;;;13.28;;
22318;SDS011;11327;52.334;9.506;2023-04-15T06:24:02;20.90;;;13.13;;
22318;SDS011;11327;52.334;9.506;2023-04-15T06:27:23;19.10;;;11.88;;
22318;SDS011;11327;52.334;9.506;2023-04-15T06:30:44;18.15;;;11.53;;
22318;SDS011;11327;52.334;9.506;2023-04-15T06:34:04;18.95;;;11.83;;
22318;SDS011;11327;52.334;9.506;2023-04-15T06:37:25;18.30;;;11.68;;
22318;SDS011;11327;52.334;9.506;2023-04-15T06:40:46;17.92;;;11.88;;
22318;SDS011;11327;52.334;9.506;2023-04-15T06:44:06;18.95;;;11.38;;
22318;SDS011;11327;52.334;9.506;2023-04-15T06:47:27;15.63;;;10.25;;
22318;SDS011;11327;52.334;9.506;2023-04-15T06:50:48;15.00;;;9.85;;
22318;SDS011;11327;52.334;9.506;2023-04-15T06:54:09;15.78;;;9.38;;
22318;SDS011;11327;52.334;9.506;2023-04-15T06:57:30;13.88;;;8.73;;
22318;SDS011;11327;52.334;9.506;2023-04-15T07:00:51;14.85;;;9.15;;
22318;SDS011;11327;52.334;9.506;2023-04-15T07:04:12;12.58;;;9.03;;
22318;SDS011;11327;52.334;9.506;2023-04-15T07:07:33;14.47;;;8.83;;
22318;SDS011;11327;52.334;9.506;2023-04-15T07:10:53;14.73;;;9.35;;
22318;SDS011;11327;52.334;9.506;2023-04-15T07:14:14;15.00;;;9.20;;
22318;SDS011;11327;52.334;9.506;2023-04-15T07:17:35;14.47;;;9.53;;
22318;SDS011;11327;52.334;9.506;2023-04-15T07:20:56;13.62;;;9.15;;
22318;SDS011;11327;52.334;9.506;2023-04-15T07:24:17;14.90;;;9.28;;
22318;SDS011;11327;52.334;9.506;2023-04-15T07:27:39;14.73;;;9.50;;
22318;SDS011;11327;52.334;9.506;2023-04-15T07:31:00;13.30;;;8.68;;
22318;SDS011;11327;52.334;9.506;2023-04-15T07:34:20;14.98;;;9.10;;
22318;SDS011;11327;52.334;9.506;2023-04-15T07:37:41;13.85;;;8.80;;
22318;SDS011;11327;52.334;9.506;2023-04-15T07:41:02;12.90;;;8.65;;
22318;SDS011;11327;52.334;9.506;2023-04-15T07:44:24;12.70;;;8.43;;
22318;SDS011;11327;52.334;9.506;2023-04-15T07:47:46;13.62;;;8.93;;
22318;SDS011;11327;52.334;9.506;2023-04-15T07:51:07;14.50;;;8.35;;
22318;SDS011;11327;52.334;9.506;2023-04-15T07:54:27;13.32;;;8.00;;
22318;SDS011;11327;52.334;9.506;2023-04-15T07:57:48;11.28;;;7.67;;
22318;SDS011;11327;52.334;9.506;2023-04-15T08:01:09;12.30;;;8.40;;
22318;SDS011;11327;52.334;9.506;2023-04-15T08:04:31;11.40;;;7.67;;
22318;SDS011;11327;52.334;9.506;2023-04-15T08:07:53;12.33;;;8.20;;
22318;SDS011;11327;52.334;9.506;2023-04-15T08:11:13;11.05;;;7.20;;
22318;SDS011;11327;52.334;9.506;2023-04-15T08:14:34;12.35;;;7.37;;
22318;SDS011;11327;52.334;9.506;2023-04-15T08:17:55;11.60;;;7.50;;
22318;SDS011;11327;52.334;9.506;2023-04-15T08:21:16;11.93;;;7.33;;
22318;SDS011;11327;52.334;9.506;2023-04-15T08:24:38;11.80;;;7.33;;
22318;SDS011;11327;52.334;9.506;2023-04-15T08:28:02;11.30;;;7.10;;
22318;SDS011;11327;52.334;9.506;2023-04-15T08:31:25;12.13;;;7.25;;
22318;SDS011;11327;52.334;9.506;2023-04-15T08:34:46;10.82;;;6.75;;
22318;SDS011;11327;52.334;9.506;2023-04-15T08:38:07;11.25;;;7.33;;
22318;SDS011;11327;52.334;9.506;2023-04-15T08:41:28;9.43;;;6.75;;
22318;SDS011;11327;52.334;9.506;2023-04-15T08:44:54;10.95;;;7.12;;
22318;SDS011;11327;52.334;9.506;2023-04-15T08:48:15;12.05;;;7.55;;
22318;SDS011;11327;52.334;9.506;2023-04-15T08:51:37;10.70;;;7.12;;
22318;SDS011;11327;52.334;9.506;2023-04-15T08:54:59;10.20;;;7.22;;
22318;SDS011;11327;52.334;9.506;2023-04-15T08:58:22;11.20;;;7.50;;
22318;SDS011;11327;52.334;9.506;2023-04-15T09:01:44;9.40;;;6.15;;
22318;SDS011;11327;52.334;9.506;2023-04-15T09:05:05;9.43;;;6.53;;
22318;SDS011;11327;52.334;9.506;2023-04-15T09:08:27;10.03;;;6.95;;
22318;SDS011;11327;52.334;9.506;2023-04-15T09:11:47;9.10;;;6.65;;
22318;SDS011;11327;52.334;9.506;2023-04-15T09:15:10;10.80;;;7.42;;
22318;SDS011;11327;52.334;9.506;2023-04-15T09:18:33;10.10;;;7.28;;
22318;SDS011;11327;52.334;9.506;2023-04-15T09:21:57;8.63;;;6.47;;
22318;SDS011;11327;52.334;9.506;2023-04-15T09:32:13;9.53;;;6.60;;
22318;SDS011;11327;52.334;9.506;2023-04-15T09:35:35;8.68;;;6.17;;
22318;SDS011;11327;52.334;9.506;2023-04-15T09:38:57;8.40;;;6.40;;
22318;SDS011;11327;52.334;9.506;2023-04-15T09:42:18;9.70;;;6.40;;
22318;SDS011;11327;52.334;9.506;2023-04-15T09:45:50;7.92;;;5.83;;
22318;SDS011;11327;52.334;9.506;2023-04-15T09:49:14;8.68;;;6.20;;
22318;SDS011;11327;52.334;9.506;2023-04-15T09:52:40;9.40;;;6.10;;
22318;SDS011;11327;52.334;9.506;2023-04-15T09:56:03;8.47;;;5.97;;
22318;SDS011;11327;52.334;9.506;2023-04-15T09:59:26;8.48;;;5.85;;
22318;SDS011;11327;52.334;9.506;2023-04-15T10:02:46;7.83;;;5.80;;
22318;SDS011;11327;52.334;9.506;2023-04-15T10:06:08;7.15;;;4.97;;
22318;SDS011;11327;52.334;9.506;2023-04-15T10:09:29;7.65;;;5.72;;
22318;SDS011;11327;52.334;9.506;2023-04-15T10:12:51;8.35;;;6.05;;
22318;SDS011;11327;52.334;9.506;2023-04-15T10:16:14;8.08;;;5.67;;
22318;SDS011;11327;52.334;9.506;2023-04-15T10:19:36;10.45;;;6.45;;
22318;SDS011;11327;52.334;9.506;2023-04-15T10:22:57;9.80;;;6.53;;
22318;SDS011;11327;52.334;9.506;2023-04-15T10:26:18;10.10;;;6.67;;
22318;SDS011;11327;52.334;9.506;2023-04-15T10:29:40;9.55;;;6.67;;
22318;SDS011;11327;52.334;9.506;2023-04-15T10:33:02;10.63;;;6.85;;
22318;SDS011;11327;52.334;9.506;2023-04-15T10:36:23;10.00;;;6.60;;
22318;SDS011;11327;52.334;9.506;2023-04-15T10:39:44;10.85;;;7.08;;
22318;SDS011;11327;52.334;9.506;2023-04-15T10:43:05;11.43;;;7.22;;
22318;SDS011;11327;52.334;9.506;2023-04-15T10:50:01;12.28;;;8.15;;
22318;SDS011;11327;52.334;9.506;2023-04-15T10:53:27;12.55;;;8.55;;
22318;SDS011;11327;52.334;9.506;2023-04-15T10:57:08;13.85;;;8.70;;
22318;SDS011;11327;52.334;9.506;2023-04-15T11:00:25;14.90;;;9.10;;
22318;SDS011;11327;52.334;9.506;2023-04-15T11:03:48;14.25;;;9.10;;
22318;SDS011;11327;52.334;9.506;2023-04-15T11:07:10;15.38;;;9.28;;
22318;SDS011;11327;52.334;9.506;2023-04-15T11:13:55;17.30;;;11.05;;
22318;SDS011;11327;52.334;9.506;2023-04-15T11:17:25;19.12;;;11.83;;
22318;SDS011;11327;52.334;9.506;2023-04-15T11:20:41;20.48;;;12.10;;
22318;SDS011;11327;52.334;9.506;2023-04-15T11:24:06;19.70;;;12.18;;
22318;SDS011;11327;52.334;9.506;2023-04-15T11:27:29;23.47;;;12.90;;
22318;SDS011;11327;52.334;9.506;2023-04-15T11:30:50;24.18;;;13.25;;
22318;SDS011;11327;52.334;9.506;2023-04-15T11:34:11;26.57;;;14.73;;
22318;SDS011;11327;52.334;9.506;2023-04-15T11:37:31;25.37;;;14.55;;
22318;SDS011;11327;52.334;9.506;2023-04-15T11:40:52;28.17;;;16.62;;
22318;SDS011;11327;52.334;9.506;2023-04-15T11:44:16;29.05;;;15.65;;
22318;SDS011;11327;52.334;9.506;2023-04-15T11:47:38;27.32;;;15.70;;
22318;SDS011;11327;52.334;9.506;2023-04-15T11:51:01;30.65;;;17.98;;
22318;SDS011;11327;52.334;9.506;2023-04-15T11:54:23;32.15;;;17.17;;
22318;SDS011;11327;52.334;9.506;2023-04-15T11:57:44;31.17;;;17.75;;
22318;SDS011;11327;52.334;9.506;2023-04-15T12:01:05;33.25;;;19.20;;
22318;SDS011;11327;52.334;9.506;2023-04-15T12:04:27;34.50;;;19.62;;
22318;SDS011;11327;52.334;9.506;2023-04-15T12:07:57;37.53;;;20.00;;
22318;SDS011;11327;52.334;9.506;2023-04-15T12:11:29;37.83;;;21.48;;
22318;SDS011;11327;52.334;9.506;2023-04-15T12:14:52;37.10;;;20.68;;
22318;SDS011;11327;52.334;9.506;2023-04-15T12:18:16;40.78;;;21.80;;
22318;SDS011;11327;52.334;9.506;2023-04-15T12:21:38;42.33;;;22.30;;
22318;SDS011;11327;52.334;9.506;2023-04-15T12:25:01;42.17;;;23.45;;
22318;SDS011;11327;52.334;9.506;2023-04-15T12:28:22;41.70;;;22.42;;
22318;SDS011;11327;52.334;9.506;2023-04-15T12:31:50;43.80;;;22.87;;
22318;SDS011;11327;52.334;9.506;2023-04-15T12:35:18;43.28;;;22.85;;
22318;SDS011;11327;52.334;9.506;2023-04-15T12:38:40;51.13;;;25.50;;
22318;SDS011;11327;52.334;9.506;2023-04-15T12:42:02;46.92;;;24.87;;
22318;SDS011;11327;52.334;9.506;2023-04-15T12:45:24;47.45;;;25.65;;
22318;SDS011;11327;52.334;9.506;2023-04-15T12:48:45;51.53;;;26.12;;
22318;SDS011;11327;52.334;9.506;2023-04-15T12:52:06;48.02;;;27.07;;
22318;SDS011;11327;52.334;9.506;2023-04-15T12:55:27;50.48;;;26.45;;
22318;SDS011;11327;52.334;9.506;2023-04-15T12:58:50;53.05;;;27.35;;
22318;SDS011;11327;52.334;9.506;2023-04-15T13:02:10;58.48;;;29.57;;
22318;SDS011;11327;52.334;9.506;2023-04-15T13:05:31;53.65;;;28.38;;
22318;SDS011;11327;52.334;9.506;2023-04-15T13:08:52;57.60;;;29.95;;
22318;SDS011;11327;52.334;9.506;2023-04-15T13:12:14;55.40;;;29.63;;
22318;SDS011;11327;52.334;9.506;2023-04-15T13:15:35;55.28;;;28.42;;
22318;SDS011;11327;52.334;9.506;2023-04-15T13:18:56;58.33;;;29.05;;
22318;SDS011;11327;52.334;9.506;2023-04-15T13:22:20;55.63;;;30.02;;
22318;SDS011;11327;52.334;9.506;2023-04-15T13:25:41;58.75;;;32.23;;
22318;SDS011;11327;52.334;9.506;2023-04-15T13:29:02;61.68;;;32.20;;
22318;SDS011;11327;52.334;9.506;2023-04-15T13:32:24;61.42;;;32.00;;
22318;SDS011;11327;52.334;9.506;2023-04-15T13:35:45;61.83;;;33.13;;
22318;SDS011;11327;52.334;9.506;2023-04-15T13:39:05;63.30;;;33.92;;
22318;SDS011;11327;52.334;9.506;2023-04-15T13:42:26;58.87;;;33.10;;
22318;SDS011;11327;52.334;9.506;2023-04-15T13:45:47;61.65;;;32.55;;
22318;SDS011;11327;52.334;9.506;2023-04-15T13:49:07;57.03;;;31.90;;
22318;SDS011;11327;52.334;9.506;2023-04-15T13:52:28;62.30;;;32.67;;
22318;SDS011;11327;52.334;9.506;2023-04-15T13:55:49;68.62;;;34.85;;
22318;SDS011;11327;52.334;9.506;2023-04-15T13:59:10;63.28;;;33.78;;
22318;SDS011;11327;52.334;9.506;2023-04-15T14:02:30;63.73;;;33.23;;
22318;SDS011;11327;52.334;9.506;2023-04-15T14:05:51;60.35;;;32.53;;
22318;SDS011;11327;52.334;9.506;2023-04-15T14:09:14;60.52;;;33.08;;
22318;SDS011;11327;52.334;9.506;2023-04-15T14:12:35;60.03;;;32.48;;
22318;SDS011;11327;52.334;9.506;2023-04-15T14:15:55;63.98;;;35.05;;
22318;SDS011;11327;52.334;9.506;2023-04-15T14:19:16;63.28;;;33.50;;
22318;SDS011;11327;52.334;9.506;2023-04-15T14:22:37;62.75;;;34.75;;
22318;SDS011;11327;52.334;9.506;2023-04-15T14:25:58;64.60;;;35.33;;
22318;SDS011;11327;52.334;9.506;2023-04-15T14:29:19;65.50;;;35.48;;
22318;SDS011;11327;52.334;9.506;2023-04-15T14:32:39;58.52;;;33.28;;
22318;SDS011;11327;52.334;9.506;2023-04-15T14:36:00;60.55;;;35.13;;
22318;SDS011;11327;52.334;9.506;2023-04-15T14:39:21;57.58;;;32.75;;
22318;SDS011;11327;52.334;9.506;2023-04-15T14:42:42;54.73;;;31.97;;
22318;SDS011;11327;52.334;9.506;2023-04-15T14:46:02;54.95;;;32.45;;
22318;SDS011;11327;52.334;9.506;2023-04-15T14:49:23;49.63;;;30.52;;
22318;SDS011;11327;52.334;9.506;2023-04-15T14:52:44;47.58;;;30.82;;
22318;SDS011;11327;52.334;9.506;2023-04-15T14:56:05;48.50;;;30.20;;
22318;SDS011;11327;52.334;9.506;2023-04-15T14:59:26;48.00;;;31.10;;
22318;SDS011;11327;52.334;9.506;2023-04-15T15:02:47;51.40;;;30.97;;
22318;SDS011;11327;52.334;9.506;2023-04-15T15:06:07;44.50;;;28.70;;
22318;SDS011;11327;52.334;9.506;2023-04-15T15:09:28;49.18;;;30.37;;
22318;SDS011;11327;52.334;9.506;2023-04-15T15:12:49;51.37;;;30.60;;
22318;SDS011;11327;52.334;9.506;2023-04-15T15:16:10;46.58;;;28.98;;
22318;SDS011;11327;52.334;9.506;2023-04-15T15:19:30;47.17;;;29.27;;
22318;SDS011;11327;52.334;9.506;2023-04-15T15:22:51;45.28;;;29.52;;
22318;SDS011;11327;52.334;9.506;2023-04-15T15:26:12;47.90;;;29.48;;
22318;SDS011;11327;52.334;9.506;2023-04-15T15:29:33;46.83;;;29.42;;
22318;SDS011;11327;52.334;9.506;2023-04-15T15:32:54;47.30;;;29.98;;
22318;SDS011;11327;52.334;9.506;2023-04-15T15:36:14;45.33;;;29.45;;
22318;SDS011;11327;52.334;9.506;2023-04-15T15:39:35;47.83;;;29.57;;
22318;SDS011;11327;52.334;9.506;2023-04-15T15:42:56;49.38;;;30.62;;
22318;SDS011;11327;52.334;9.506;2023-04-15T15:46:16;45.05;;;29.10;;
22318;SDS011;11327;52.334;9.506;2023-04-15T15:49:38;46.92;;;30.27;;
22318;SDS011;11327;52.334;9.506;2023-04-15T15:52:59;51.08;;;30.02;;
22318;SDS011;11327;52.334;9.506;2023-04-15T15:56:20;45.03;;;29.95;;
22318;SDS011;11327;52.334;9.506;2023-04-15T15:59:40;47.20;;;29.50;;
22318;SDS011;11327;52.334;9.506;2023-04-15T16:03:02;49.53;;;30.72;;
22318;SDS011;11327;52.334;9.506;2023-04-15T16:06:23;52.65;;;31.33;;
22318;SDS011;11327;52.334;9.506;2023-04-15T16:09:44;47.58;;;31.52;;
22318;SDS011;11327;52.334;9.506;2023-04-15T16:13:05;49.03;;;30.90;;
22318;SDS011;11327;52.334;9.506;2023-04-15T16:16:25;50.67;;;32.10;;
22318;SDS011;11327;52.334;9.506;2023-04-15T16:19:46;48.45;;;31.70;;
22318;SDS011;11327;52.334;9.506;2023-04-15T16:23:10;50.78;;;32.35;;
22318;SDS011;11327;52.334;9.506;2023-04-15T16:26:33;50.05;;;31.95;;
22318;SDS011;11327;52.334;9.506;2023-04-15T16:29:54;46.95;;;31.12;;
22318;SDS011;11327;52.334;9.506;2023-04-15T16:33:15;43.65;;;30.37;;
22318;SDS011;11327;52.334;9.506;2023-04-15T16:36:36;47.95;;;30.50;;
22318;SDS011;11327;52.334;9.506;2023-04-15T16:39:58;47.98;;;30.55;;
22318;SDS011;11327;52.334;9.506;2023-04-15T16:43:20;44.35;;;30.17;;
22318;SDS011;11327;52.334;9.506;2023-04-15T16:46:40;45.40;;;30.17;;
22318;SDS011;11327;52.334;9.506;2023-04-15T16:50:01;46.88;;;30.30;;
22318;SDS011;11327;52.334;9.506;2023-04-15T16:53:22;48.58;;;32.13;;
22318;SDS011;11327;52.334;9.506;2023-04-15T16:56:43;48.40;;;30.62;;
22318;SDS011;11327;52.334;9.506;2023-04-15T17:00:04;51.98;;;32.48;;
22318;SDS011;11327;52.334;9.506;2023-04-15T17:03:26;47.17;;;31.57;;
22318;SDS011;11327;52.334;9.506;2023-04-15T17:06:47;53.25;;;33.05;;
22318;SDS011;11327;52.334;9.506;2023-04-15T17:10:07;51.92;;;32.85;;
22318;SDS011;11327;52.334;9.506;2023-04-15T17:13:28;50.20;;;30.97;;
22318;SDS011;11327;52.334;9.506;2023-04-15T17:16:50;48.40;;;32.30;;
22318;SDS011;11327;52.334;9.506;2023-04-15T17:20:10;49.90;;;33.00;;
22318;SDS011;11327;52.334;9.506;2023-04-15T17:23:31;51.90;;;32.67;;
22318;SDS011;11327;52.334;9.506;2023-04-15T17:26:52;51.10;;;34.03;;
22318;SDS011;11327;52.334;9.506;2023-04-15T17:30:13;54.53;;;36.42;;
22318;SDS011;11327;52.334;9.506;2023-04-15T17:33:34;51.55;;;33.55;;
22318;SDS011;11327;52.334;9.506;2023-04-15T17:36:55;52.85;;;34.38;;
22318;SDS011;11327;52.334;9.506;2023-04-15T17:40:16;52.08;;;33.98;;
22318;SDS011;11327;52.334;9.506;2023-04-15T17:43:36;52.70;;;34.58;;
22318;SDS011;11327;52.334;9.506;2023-04-15T17:46:57;54.48;;;36.45;;
22318;SDS011;11327;52.334;9.506;2023-04-15T17:50:18;53.25;;;34.23;;
22318;SDS011;11327;52.334;9.506;2023-04-15T17:53:39;55.75;;;35.43;;
22318;SDS011;11327;52.334;9.506;2023-04-15T17:57:01;51.28;;;34.08;;
22318;SDS011;11327;52.334;9.506;2023-04-15T18:00:22;49.77;;;32.75;;
22318;SDS011;11327;52.334;9.506;2023-04-15T18:03:43;49.53;;;33.35;;
22318;SDS011;11327;52.334;9.506;2023-04-15T18:07:04;52.40;;;34.03;;
22318;SDS011;11327;52.334;9.506;2023-04-15T18:10:25;50.12;;;33.92;;
22318;SDS011;11327;52.334;9.506;2023-04-15T18:13:45;49.70;;;33.75;;
22318;SDS011;11327;52.334;9.506;2023-04-15T18:17:06;47.73;;;31.82;;
22318;SDS011;11327;52.334;9.506;2023-04-15T18:20:27;48.90;;;33.18;;
22318;SDS011;11327;52.334;9.506;2023-04-15T18:23:48;48.45;;;33.65;;
22318;SDS011;11327;52.334;9.506;2023-04-15T18:27:09;51.30;;;34.03;;
22318;SDS011;11327;52.334;9.506;2023-04-15T18:30:29;50.28;;;33.67;;
22318;SDS011;11327;52.334;9.506;2023-04-15T18:33:50;49.20;;;32.90;;
22318;SDS011;11327;52.334;9.506;2023-04-15T18:37:11;47.10;;;31.93;;
22318;SDS011;11327;52.334;9.506;2023-04-15T18:40:32;50.25;;;32.80;;
22318;SDS011;11327;52.334;9.506;2023-04-15T18:43:52;50.88;;;34.13;;
22318;SDS011;11327;52.334;9.506;2023-04-15T18:47:15;54.48;;;34.67;;
22318;SDS011;11327;52.334;9.506;2023-04-15T18:50:36;57.15;;;36.23;;
22318;SDS011;11327;52.334;9.506;2023-04-15T18:53:56;50.90;;;35.08;;
22318;SDS011;11327;52.334;9.506;2023-04-15T18:57:17;50.38;;;33.35;;
22318;SDS011;11327;52.334;9.506;2023-04-15T19:00:41;51.60;;;34.90;;
22318;SDS011;11327;52.334;9.506;2023-04-15T19:04:02;47.83;;;32.95;;
22318;SDS011;11327;52.334;9.506;2023-04-15T19:07:23;49.60;;;34.60;;
22318;SDS011;11327;52.334;9.506;2023-04-15T19:10:44;57.13;;;38.05;;
22318;SDS011;11327;52.334;9.506;2023-04-15T19:14:05;50.58;;;34.70;;
22318;SDS011;11327;52.334;9.506;2023-04-15T19:17:26;51.42;;;35.43;;
22318;SDS011;11327;52.334;9.506;2023-04-15T19:20:46;53.87;;;35.30;;
22318;SDS011;11327;52.334;9.506;2023-04-15T19:24:09;53.33;;;34.95;;
22318;SDS011;11327;52.334;9.506;2023-04-15T19:27:30;49.67;;;33.10;;
22318;SDS011;11327;52.334;9.506;2023-04-15T19:30:51;52.40;;;33.25;;
22318;SDS011;11327;52.334;9.506;2023-04-15T19:34:12;50.35;;;34.43;;
22318;SDS011;11327;52.334;9.506;2023-04-15T19:37:34;49.18;;;33.73;;
22318;SDS011;11327;52.334;9.506;2023-04-15T19:40:54;49.75;;;32.67;;
22318;SDS011;11327;52.334;9.506;2023-04-15T19:44:16;50.23;;;33.10;;
22318;SDS011;11327;52.334;9.506;2023-04-15T19:47:36;48.48;;;32.58;;
22318;SDS011;11327;52.334;9.506;2023-04-15T19:50:57;49.83;;;32.85;;
22318;SDS011;11327;52.334;9.506;2023-04-15T19:54:19;48.45;;;32.80;;
22318;SDS011;11327;52.334;9.506;2023-04-15T19:57:40;46.92;;;31.45;;
22318;SDS011;11327;52.334;9.506;2023-04-15T20:01:01;45.38;;;30.97;;